Time,TemperatureF,DewpointF,PressureIn,WindDirection,WindDirectionDegrees,WindSpeedMPH,WindSpeedGustMPH,Humidity,HourlyPrecipIn,Conditions,Clouds,dailyrainin,SolarRadiationWatts/m^2,SoftwareType,DateUTC
2015-05-07 00:02:00,49.8,39.7,29.67,WSW,252,0.0,0.0,68,0.00,,,0.00,0,WeatherCatV2.10B1306,2015-05-07 04:02:00,
2015-05-07 00:07:00,49.6,39.8,29.67,WSW,252,0.0,0.0,69,0.00,,,0.00,0,WeatherCatV2.10B1306,2015-05-07 04:07:00,
2015-05-07 00:12:00,49.5,40.5,29.67,WSW,252,0.0,0.0,71,0.00,,,0.00,0,WeatherCatV2.10B1306,2015-05-07 04:12:00,
2015-05-07 00:17:00,49.4,40.0,29.67,WSW,252,0.0,0.0,70,0.00,,,0.00,0,WeatherCatV2.10B1306,2015-05-07 04:17:00,
2015-05-07 00:22:00,49.3,40.3,29.67,WSW,252,0.0,1.0,71,0.00,,,0.00,0,WeatherCatV2.10B1306,2015-05-07 04:22:00,
2015-05-07 00:27:00,49.2,40.9,29.68,WSW,252,0.0,0.0,73,0.00,,,0.00,0,WeatherCatV2.10B1306,2015-05-07 04:27:00,
2015-05-07 00:32:00,49.1,41.2,29.68,North,5,0.0,1.0,74,0.00,,,0.00,0,WeatherCatV2.10B1306,2015-05-07 04:32:00,
2015-05-07 00:37:00,49.0,40.7,29.67,North,5,0.0,0.0,73,0.00,,,0.00,0,WeatherCatV2.10B1306,2015-05-07 04:37:00,
2015-05-07 00:42:00,48.9,41.0,29.67,North,5,0.0,0.0,74,0.00,,,0.00,0,WeatherCatV2.10B1306,2015-05-07 04:42:00,
2015-05-07 00:47:00,48.7,40.1,29.67,North,5,0.0,0.0,72,0.00,,,0.00,0,WeatherCatV2.10B1306,2015-05-07 04:47:00,
2015-05-07 00:52:00,48.5,39.5,29.67,North,5,0.0,0.0,71,0.00,,,0.00,0,WeatherCatV2.10B1306,2015-05-07 04:52:00,
2015-05-07 00:57:00,48.3,39.7,29.68,North,0,0.0,0.0,72,0.00,,,0.00,0,WeatherCatV2.10B1306,2015-05-07 04:57:00,
2015-05-07 01:02:00,48.1,39.9,29.68,North,0,0.0,0.0,73,0.00,,,0.00,0,WeatherCatV2.10B1306,2015-05-07 05:02:00,
2015-05-07 01:07:00,47.8,39.6,29.68,North,0,0.0,0.0,73,0.00,,,0.00,0,WeatherCatV2.10B1306,2015-05-07 05:07:00,
2015-05-07 01:12:00,47.6,39.4,29.68,North,0,0.0,0.0,73,0.00,,,0.00,0,WeatherCatV2.10B1306,2015-05-07 05:12:00,
2015-05-07 01:17:00,47.4,39.2,29.68,North,0,0.0,0.0,73,0.00,,,0.00,0,WeatherCatV2.10B1306,2015-05-07 05:17:00,
2015-05-07 01:22:00,47.2,39.0,29.68,North,0,0.0,0.0,73,0.00,,,0.00,0,WeatherCatV2.10B1306,2015-05-07 05:22:00,
2015-05-07 01:27:00,47.0,39.5,29.68,North,0,0.0,0.0,75,0.00,,,0.00,0,WeatherCatV2.10B1306,2015-05-07 05:27:00,
2015-05-07 01:32:00,46.8,39.6,29.68,North,0,0.0,0.0,76,0.00,,,0.00,0,WeatherCatV2.10B1306,2015-05-07 05:32:00,
2015-05-07 01:37:00,46.7,41.5,29.68,North,5,0.0,1.0,82,0.00,,,0.00,0,WeatherCatV2.10B1306,2015-05-07 05:37:00,
2015-05-07 01:42:00,46.6,41.4,29.67,North,5,0.0,0.0,82,0.00,,,0.00,0,WeatherCatV2.10B1306,2015-05-07 05:42:00,
2015-05-07 01:47:00,46.4,40.2,29.67,North,5,0.0,0.0,79,0.00,,,0.00,0,WeatherCatV2.10B1306,2015-05-07 05:47:00,
2015-05-07 01:52:00,46.3,39.8,29.67,North,5,0.0,0.0,78,0.00,,,0.00,0,WeatherCatV2.10B1306,2015-05-07 05:52:00,
2015-05-07 01:57:00,46.2,39.7,29.67,North,5,0.0,0.0,78,0.00,,,0.00,0,WeatherCatV2.10B1306,2015-05-07 05:57:00,
2015-05-07 02:02:00,46.0,39.5,29.67,North,5,0.0,0.0,78,0.00,,,0.00,0,WeatherCatV2.10B1306,2015-05-07 06:02:00,
2015-05-07 02:07:00,45.9,39.8,29.67,North,5,0.0,0.0,79,0.00,,,0.00,0,WeatherCatV2.10B1306,2015-05-07 06:07:00,
2015-05-07 02:12:00,45.8,39.7,29.67,North,5,0.0,0.0,79,0.00,,,0.00,0,WeatherCatV2.10B1306,2015-05-07 06:12:00,
2015-05-07 02:17:00,45.6,39.5,29.67,North,5,0.0,0.0,79,0.00,,,0.00,0,WeatherCatV2.10B1306,2015-05-07 06:17:00,
2015-05-07 02:22:00,45.4,39.6,29.67,North,5,0.0,0.0,80,0.00,,,0.00,0,WeatherCatV2.10B1306,2015-05-07 06:22:00,
2015-05-07 02:27:00,45.2,39.4,29.67,North,5,0.0,0.0,80,0.00,,,0.00,0,WeatherCatV2.10B1306,2015-05-07 06:27:00,
2015-05-07 02:32:00,45.1,39.6,29.67,North,5,0.0,0.0,81,0.00,,,0.00,0,WeatherCatV2.10B1306,2015-05-07 06:32:00,
2015-05-07 02:37:00,45.0,39.8,29.66,North,5,0.0,0.0,82,0.00,,,0.00,0,WeatherCatV2.10B1306,2015-05-07 06:37:00,
2015-05-07 02:42:00,44.9,39.7,29.67,North,5,0.0,0.0,82,0.00,,,0.00,0,WeatherCatV2.10B1306,2015-05-07 06:42:00,
2015-05-07 02:47:00,44.7,39.5,29.67,North,5,0.0,0.0,82,0.00,,,0.00,0,WeatherCatV2.10B1306,2015-05-07 06:47:00,
2015-05-07 02:52:00,44.6,39.5,29.67,North,5,0.0,0.0,82,0.00,,,0.00,0,WeatherCatV2.10B1306,2015-05-07 06:52:00,
2015-05-07 02:57:00,44.5,39.3,29.67,North,5,0.0,0.0,82,0.00,,,0.00,0,WeatherCatV2.10B1306,2015-05-07 06:57:00,
2015-05-07 03:02:00,44.4,39.2,29.67,North,5,0.0,0.0,82,0.00,,,0.00,0,WeatherCatV2.10B1306,2015-05-07 07:02:00,
2015-05-07 03:07:00,44.3,39.2,29.67,North,5,0.0,0.0,82,0.00,,,0.00,0,WeatherCatV2.10B1306,2015-05-07 07:07:00,
2015-05-07 03:12:00,44.1,39.0,29.67,North,5,0.0,1.0,82,0.00,,,0.00,0,WeatherCatV2.10B1306,2015-05-07 07:12:00,
2015-05-07 03:17:00,44.0,38.9,29.67,North,5,0.0,0.0,82,0.00,,,0.00,0,WeatherCatV2.10B1306,2015-05-07 07:17:00,
2015-05-07 03:22:00,43.8,38.7,29.67,North,5,0.0,0.0,82,0.00,,,0.00,0,WeatherCatV2.10B1306,2015-05-07 07:22:00,
2015-05-07 03:27:00,43.7,38.3,29.67,North,5,0.0,0.0,81,0.00,,,0.00,0,WeatherCatV2.10B1306,2015-05-07 07:27:00,
2015-05-07 03:32:00,43.6,38.8,29.67,North,5,0.0,0.0,83,0.00,,,0.00,0,WeatherCatV2.10B1306,2015-05-07 07:32:00,
2015-05-07 03:37:00,43.5,39.0,29.68,North,5,0.0,0.0,84,0.00,,,0.00,0,WeatherCatV2.10B1306,2015-05-07 07:37:00,
2015-05-07 03:42:00,43.4,38.9,29.68,North,5,0.0,0.0,84,0.00,,,0.00,0,WeatherCatV2.10B1306,2015-05-07 07:42:00,
2015-05-07 03:47:00,43.3,39.1,29.68,North,5,0.0,0.0,85,0.00,,,0.00,0,WeatherCatV2.10B1306,2015-05-07 07:47:00,
2015-05-07 03:52:00,43.2,38.7,29.67,North,5,0.0,0.0,84,0.00,,,0.00,0,WeatherCatV2.10B1306,2015-05-07 07:52:00,
2015-05-07 03:57:00,43.1,38.3,29.67,North,5,0.0,0.0,83,0.00,,,0.00,0,WeatherCatV2.10B1306,2015-05-07 07:57:00,
2015-05-07 04:02:00,43.0,38.2,29.67,North,5,0.0,0.0,83,0.00,,,0.00,0,WeatherCatV2.10B1306,2015-05-07 08:02:00,
2015-05-07 04:07:00,42.9,38.4,29.67,North,5,0.0,0.0,84,0.00,,,0.00,0,WeatherCatV2.10B1306,2015-05-07 08:07:00,
2015-05-07 04:12:00,42.8,38.3,29.67,North,5,0.0,0.0,84,0.00,,,0.00,0,WeatherCatV2.10B1306,2015-05-07 08:12:00,
2015-05-07 04:17:00,42.7,38.2,29.67,North,5,0.0,0.0,84,0.00,,,0.00,0,WeatherCatV2.10B1306,2015-05-07 08:17:00,
2015-05-07 04:22:00,42.5,38.0,29.67,North,5,0.0,0.0,84,0.00,,,0.00,0,WeatherCatV2.10B1306,2015-05-07 08:22:00,
2015-05-07 04:27:00,42.4,37.9,29.67,North,5,0.0,0.0,84,0.00,,,0.00,0,WeatherCatV2.10B1306,2015-05-07 08:27:00,
2015-05-07 04:32:00,42.3,38.4,29.67,North,5,0.0,0.0,86,0.00,,,0.00,0,WeatherCatV2.10B1306,2015-05-07 08:32:00,
2015-05-07 04:37:00,42.2,38.3,29.67,North,5,0.0,0.0,86,0.00,,,0.00,0,WeatherCatV2.10B1306,2015-05-07 08:37:00,
2015-05-07 04:42:00,42.1,38.2,29.67,North,5,0.0,1.0,86,0.00,,,0.00,0,WeatherCatV2.10B1306,2015-05-07 08:42:00,
2015-05-07 04:47:00,42.0,38.1,29.67,North,5,0.0,0.0,86,0.00,,,0.00,0,WeatherCatV2.10B1306,2015-05-07 08:47:00,
2015-05-07 04:52:00,41.9,38.0,29.67,North,5,0.0,0.0,86,0.00,,,0.00,0,WeatherCatV2.10B1306,2015-05-07 08:52:00,
2015-05-07 04:57:00,41.8,37.9,29.68,North,5,0.0,0.0,86,0.00,,,0.00,0,WeatherCatV2.10B1306,2015-05-07 08:57:00,
2015-05-07 05:02:00,41.8,38.2,29.68,North,5,0.0,0.0,87,0.00,,,0.00,0,WeatherCatV2.10B1306,2015-05-07 09:02:00,
2015-05-07 05:07:00,41.7,38.4,29.68,North,5,0.0,0.0,88,0.00,,,0.00,0,WeatherCatV2.10B1306,2015-05-07 09:07:00,
2015-05-07 05:12:00,41.7,38.7,29.69,North,5,0.0,0.0,89,0.00,,,0.00,0,WeatherCatV2.10B1306,2015-05-07 09:12:00,
2015-05-07 05:17:00,41.6,38.6,29.69,North,5,0.0,0.0,89,0.00,,,0.00,0,WeatherCatV2.10B1306,2015-05-07 09:17:00,
2015-05-07 05:22:00,41.6,38.6,29.69,North,5,0.0,0.0,89,0.00,,,0.00,0,WeatherCatV2.10B1306,2015-05-07 09:22:00,
2015-05-07 05:27:00,41.5,38.5,29.69,North,5,0.0,0.0,89,0.00,,,0.00,0,WeatherCatV2.10B1306,2015-05-07 09:27:00,
2015-05-07 05:32:00,41.5,38.5,29.69,North,5,0.0,0.0,89,0.00,,,0.00,0,WeatherCatV2.10B1306,2015-05-07 09:32:00,
2015-05-07 05:37:00,41.5,38.8,29.69,North,5,0.0,1.0,90,0.00,,,0.00,0,WeatherCatV2.10B1306,2015-05-07 09:37:00,
2015-05-07 05:42:00,41.4,38.7,29.69,North,5,0.0,0.0,90,0.00,,,0.00,5,WeatherCatV2.10B1306,2015-05-07 09:42:00,